createdAt,value
2023-05-02T00:03:55.812Z,100448.20
2023-05-02T00:08:57.920Z,100444.77
2023-05-02T00:13:59.512Z,100434.65
2023-05-02T00:19:01.064Z,100433.63
2023-05-02T00:24:02.602Z,100428.51
2023-05-02T00:29:04.134Z,100419.64
2023-05-02T00:34:05.641Z,100412.30
2023-05-02T00:39:07.155Z,100410.80
2023-05-02T00:44:08.662Z,100411.17
2023-05-02T00:49:10.408Z,100405.74
2023-05-02T00:54:13.800Z,100398.58
2023-05-02T00:59:16.311Z,100397.61
2023-05-02T01:04:36.509Z,100400.90
2023-05-02T01:10:15.827Z,100398.91
2023-05-02T01:15:20.669Z,100402.92
2023-05-02T01:20:26.314Z,100402.83
2023-05-02T01:25:37.883Z,100397.58
2023-05-02T01:30:43.403Z,100392.48
2023-05-02T01:35:48.252Z,100392.51
2023-05-02T01:40:51.908Z,100387.27
2023-05-02T01:45:54.859Z,100379.77
2023-05-02T01:50:58.772Z,100374.67
2023-05-02T01:56:01.674Z,100365.83
2023-05-02T02:01:05.843Z,100359.36
2023-05-02T02:06:08.862Z,100357.52
2023-05-02T02:11:13.037Z,100347.81
2023-05-02T02:16:21.656Z,100348.40
2023-05-02T02:21:25.292Z,100347.40
2023-05-02T02:26:26.849Z,100341.08
2023-05-02T02:31:36.215Z,100340.09
2023-05-02T02:36:53.554Z,100337.54
2023-05-02T02:42:07.552Z,100334.14
2023-05-02T02:47:14.700Z,100332.98
2023-05-02T02:52:33.903Z,100334.39
2023-05-02T02:58:17.594Z,100332.53
2023-05-02T03:03:23.296Z,100337.73
2023-05-02T03:08:25.204Z,100331.24
2023-05-02T03:13:26.694Z,100328.36
2023-05-02T03:18:28.213Z,100328.73
2023-05-02T03:23:29.729Z,100329.42
2023-05-02T03:28:31.385Z,100324.62
2023-05-02T03:33:33.145Z,100322.52
2023-05-02T03:38:34.700Z,100326.08
2023-05-02T03:43:36.263Z,100325.98
2023-05-02T03:48:38.695Z,100326.76
2023-05-02T03:53:40.746Z,100330.25
2023-05-02T03:58:42.252Z,100336.66
2023-05-02T04:03:43.991Z,100338.89
2023-05-02T04:08:45.764Z,100341.48
2023-05-02T04:13:47.296Z,100342.68
2023-05-02T04:18:48.840Z,100341.80
2023-05-02T04:23:50.329Z,100341.96
2023-05-02T04:28:51.789Z,100342.78
2023-05-02T04:33:53.494Z,100344.27
2023-05-02T04:38:54.976Z,100342.46
2023-05-02T04:43:56.511Z,100338.95
2023-05-02T04:48:58.027Z,100341.91
2023-05-02T04:53:59.513Z,100339.77
2023-05-02T04:59:01.043Z,100340.85
2023-05-02T05:04:03.688Z,100341.14
2023-05-02T05:09:06.125Z,100344.70
2023-05-02T05:14:07.627Z,100337.52
2023-05-02T05:19:09.164Z,100334.36
2023-05-02T05:24:10.678Z,100332.63
2023-05-02T05:29:12.150Z,100334.80
2023-05-02T05:34:16.767Z,100334.06
2023-05-02T05:39:18.407Z,100337.38
2023-05-02T05:44:22.103Z,100337.97
2023-05-02T05:49:24.439Z,100331.74
2023-05-02T05:54:26.019Z,100330.82
2023-05-02T05:59:27.535Z,100331.61
2023-05-02T06:04:29.068Z,100330.14
2023-05-02T06:09:30.878Z,100328.82
2023-05-02T06:14:32.342Z,100329.77
2023-05-02T06:19:33.846Z,100327.52
2023-05-02T06:24:35.410Z,100332.80
2023-05-02T06:29:36.912Z,100334.40
2023-05-02T06:34:38.409Z,100330.66
2023-05-02T06:39:39.883Z,100333.02
2023-05-02T06:44:41.357Z,100337.30
2023-05-02T06:49:42.841Z,100335.25
2023-05-02T06:54:44.389Z,100335.74
2023-05-02T06:59:45.880Z,100333.23
2023-05-02T07:04:47.393Z,100329.60
2023-05-02T07:09:49.054Z,100335.02
2023-05-02T07:14:50.524Z,100333.57
2023-05-02T07:19:52.706Z,100328.89
2023-05-02T07:25:02.309Z,100325.96
2023-05-02T07:30:05.219Z,100326.54
2023-05-02T07:35:07.330Z,100327.95
2023-05-02T07:40:09.890Z,100332.40
2023-05-02T07:45:11.468Z,100332.03
2023-05-02T07:50:13.135Z,100333.42
2023-05-02T07:55:15.269Z,100327.46
2023-05-02T08:00:17.865Z,100321.72
2023-05-02T08:05:19.500Z,100315.95
2023-05-02T08:10:21.059Z,100316.42
2023-05-02T08:15:22.568Z,100315.83
2023-05-02T08:20:24.091Z,100321.98
2023-05-02T08:25:25.663Z,100318.45
2023-05-02T08:30:33.838Z,100322.98
2023-05-02T08:35:35.315Z,100327.84
2023-05-02T08:40:41.401Z,100326.80
2023-05-02T08:45:45.446Z,100330.92
2023-05-02T08:50:48.484Z,100332.54
2023-05-02T08:55:50.378Z,100331.98
2023-05-02T09:00:54.710Z,100326.34
2023-05-02T09:06:12.966Z,100329.00
2023-05-02T09:11:16.001Z,100331.80
2023-05-02T09:16:26.902Z,100334.75
2023-05-02T09:21:41.475Z,100333.69
2023-05-02T09:26:43.706Z,100337.44
2023-05-02T09:31:55.688Z,100341.98
2023-05-02T09:36:58.642Z,100348.83
2023-05-02T09:42:00.429Z,100347.30
2023-05-02T09:47:02.322Z,100353.56
2023-05-02T09:52:15.625Z,100352.02
2023-05-02T09:57:17.163Z,100350.86
2023-05-02T10:02:21.862Z,100351.63
2023-05-02T10:07:25.743Z,100354.59
2023-05-02T10:12:30.711Z,100357.27
2023-05-02T10:17:39.707Z,100359.30
2023-05-02T10:22:42.795Z,100361.00
2023-05-02T10:27:46.274Z,100362.02
2023-05-02T10:32:49.451Z,100362.81
2023-05-02T10:37:52.075Z,100367.05
2023-05-02T10:42:54.222Z,100366.88
2023-05-02T10:48:27.749Z,100371.47
2023-05-02T10:53:36.927Z,100375.05
2023-05-02T10:59:18.664Z,100385.55
2023-05-02T11:04:20.162Z,100393.95
2023-05-02T11:09:24.407Z,100399.60
2023-05-02T11:14:25.948Z,100413.20
2023-05-02T11:19:31.045Z,100417.48
2023-05-02T11:24:40.093Z,100424.58
2023-05-02T11:30:14.924Z,100432.51
2023-05-02T11:35:36.096Z,100447.04
2023-05-02T11:40:37.816Z,100455.23
2023-05-02T11:45:42.585Z,100482.46
2023-05-02T11:50:56.323Z,100476.52
2023-05-02T11:56:01.542Z,100488.59
2023-05-02T12:01:16.424Z,100500.13
2023-05-02T12:06:20.048Z,100500.15
2023-05-02T12:11:23.569Z,100513.79
2023-05-02T12:16:25.609Z,100506.80
2023-05-02T12:21:33.208Z,100518.39
2023-05-02T12:26:34.864Z,100527.02
2023-05-02T12:31:36.670Z,100539.81
2023-05-02T12:36:45.445Z,100550.55
2023-05-02T12:41:47.352Z,100556.33
2023-05-02T12:47:01.514Z,100554.39
2023-05-02T12:52:03.286Z,100559.40
2023-05-02T12:57:05.448Z,100556.52
2023-05-02T13:02:07.720Z,100566.07
2023-05-02T13:07:09.283Z,100564.46
2023-05-02T13:12:10.996Z,100572.21
2023-05-02T13:17:13.120Z,100570.00
2023-05-02T13:22:14.661Z,100569.92
2023-05-02T13:27:18.441Z,100576.16
2023-05-02T13:32:20.043Z,100576.67
2023-05-02T13:37:21.988Z,100589.05
2023-05-02T13:42:23.599Z,100585.79
2023-05-02T13:47:25.445Z,100592.13
2023-05-02T13:52:27.059Z,100594.68
2023-05-02T13:57:28.559Z,100599.05
2023-05-02T14:02:30.145Z,100603.41
2023-05-02T14:07:31.911Z,100601.14
2023-05-02T14:12:33.398Z,100601.15
2023-05-02T14:17:35.140Z,100607.65
2023-05-02T14:22:36.764Z,100604.98
2023-05-02T14:27:38.301Z,100608.13
2023-05-02T14:32:39.843Z,100610.52
2023-05-02T14:37:45.063Z,100610.08
2023-05-02T14:42:46.738Z,100612.19
2023-05-02T14:47:48.324Z,100611.69
2023-05-02T14:52:50.934Z,100609.64
2023-05-02T14:57:52.416Z,100613.06
2023-05-02T15:02:53.981Z,100609.36
2023-05-02T15:07:55.550Z,100605.23
2023-05-02T15:12:57.023Z,100603.19
2023-05-02T15:17:58.577Z,100607.05
2023-05-02T15:23:03.460Z,100606.83
2023-05-02T15:28:05.231Z,100608.12
2023-05-02T15:33:07.003Z,100606.34
2023-05-02T15:38:09.202Z,100607.56
2023-05-02T15:43:10.889Z,100611.92
2023-05-02T15:48:12.480Z,100618.30
2023-05-02T15:53:15.911Z,100624.16
2023-05-02T15:58:17.817Z,100630.02
2023-05-02T16:03:19.426Z,100631.61
2023-05-02T16:08:21.460Z,100632.11
2023-05-02T16:13:22.979Z,100632.84
2023-05-02T16:18:28.460Z,100635.03
2023-05-02T16:23:30.275Z,100634.55
2023-05-02T16:28:31.792Z,100634.63
2023-05-02T16:33:33.693Z,100639.27
2023-05-02T16:38:36.583Z,100645.06
2023-05-02T16:43:38.220Z,100650.21
2023-05-02T16:48:39.691Z,100648.66
2023-05-02T16:53:43.434Z,100650.84
2023-05-02T16:58:44.950Z,100651.61
2023-05-02T17:03:46.979Z,100644.84
2023-05-02T17:08:48.650Z,100644.44
2023-05-02T17:13:51.111Z,100646.88
2023-05-02T17:18:53.624Z,100644.15
2023-05-02T17:23:55.241Z,100643.89
2023-05-02T17:28:56.717Z,100648.00
2023-05-02T17:33:58.184Z,100650.68
2023-05-02T17:38:59.769Z,100659.30
2023-05-02T17:44:01.282Z,100661.08
2023-05-02T17:49:02.905Z,100668.09
2023-05-02T17:54:04.607Z,100675.24
2023-05-02T17:59:06.148Z,100679.20
2023-05-02T18:04:07.806Z,100687.60
2023-05-02T18:09:09.490Z,100689.23
2023-05-02T18:14:11.008Z,100699.01
2023-05-02T18:19:12.535Z,100704.08
2023-05-02T18:24:14.096Z,100706.25
2023-05-02T18:29:15.784Z,100706.27
2023-05-02T18:34:17.294Z,100708.22
2023-05-02T18:39:21.487Z,100714.36
2023-05-02T18:44:23.080Z,100719.34
2023-05-02T18:49:26.283Z,100721.21
2023-05-02T18:54:28.727Z,100720.50
2023-05-02T18:59:30.222Z,100725.07
2023-05-02T19:04:31.984Z,100728.89
2023-05-02T19:09:33.496Z,100737.02
2023-05-02T19:14:36.489Z,100737.63
2023-05-02T19:19:37.883Z,100739.45
2023-05-02T19:24:39.618Z,100749.35
2023-05-02T19:29:41.665Z,100752.64
2023-05-02T19:34:43.143Z,100750.74
2023-05-02T19:39:44.671Z,100757.48
2023-05-02T19:44:48.099Z,100765.46
2023-05-02T19:49:51.510Z,100772.71
2023-05-02T19:54:53.720Z,100775.29
2023-05-02T19:59:55.691Z,100778.59
2023-05-02T20:04:57.156Z,100781.45
2023-05-02T20:09:58.704Z,100784.54
2023-05-02T20:15:00.222Z,100791.98
2023-05-02T20:20:07.180Z,100794.96
2023-05-02T20:25:11.518Z,100799.92
2023-05-02T20:30:19.562Z,100808.40
2023-05-02T20:35:21.129Z,100821.56
2023-05-02T20:40:23.373Z,100827.58
2023-05-02T20:45:25.085Z,100830.54
2023-05-02T20:50:27.200Z,100836.88
2023-05-02T20:55:29.071Z,100847.11
2023-05-02T21:00:34.517Z,100858.43
2023-05-02T21:05:35.994Z,100870.60
2023-05-02T21:10:37.513Z,100879.38
2023-05-02T21:15:39.985Z,100885.38
2023-05-02T21:20:41.652Z,100896.09
2023-05-02T21:25:43.269Z,100902.19
2023-05-02T21:30:47.222Z,100904.48
2023-05-02T21:35:55.873Z,100904.90
2023-05-02T21:41:04.902Z,100913.55
2023-05-02T21:46:06.507Z,100916.73
2023-05-02T21:51:12.053Z,100917.25
2023-05-02T21:56:13.577Z,100927.58
2023-05-02T22:01:15.987Z,100946.16
2023-05-02T22:06:17.765Z,100952.11
2023-05-02T22:11:21.782Z,100959.88
2023-05-02T22:16:24.037Z,100978.73
2023-05-02T22:21:25.957Z,100985.03
2023-05-02T22:26:27.515Z,100989.34
2023-05-02T22:31:29.099Z,100982.98
2023-05-02T22:36:31.305Z,100982.86
2023-05-02T22:41:32.781Z,100981.08
2023-05-02T22:46:34.358Z,100983.70
2023-05-02T22:51:37.945Z,100987.88
2023-05-02T22:56:39.468Z,100989.46
2023-05-02T23:01:41.360Z,100996.39
2023-05-02T23:06:43.083Z,100999.75
2023-05-02T23:11:44.691Z,101009.41
2023-05-02T23:16:46.693Z,101016.86
2023-05-02T23:21:48.248Z,101012.48
2023-05-02T23:26:49.878Z,101018.44
2023-05-02T23:31:53.762Z,101016.21
2023-05-02T23:36:55.537Z,101016.39
2023-05-02T23:41:57.085Z,101022.82
2023-05-02T23:46:59.719Z,101026.44
2023-05-02T23:52:02.750Z,101030.42
2023-05-02T23:57:04.577Z,101030.63
